CYYR

Goose Bay Airport

Code ICAO CYYR
Code IATA YYR
Nom Goose Bay Airport
Emplacement Goose Bay, Newfoundland-and-Labrador, CA
Élévation 160 pieds / 48.8 mètres
Latitude 53.31919861
Longitude -60.42580032
METAR CYYR 240600Z 21005KT 15SM FEW020 FEW060 M17/M18 A2952 RMK SC1SC1 SLP003
Informations extras Afficher cartes et CFS
Afficher NOTAMS
Piste Longueur Largeur Surface Élévation
08 11046 ft 209 ft ASP 160 ft
16 9580 ft 200 ft ASP 154 ft
26 11046 ft 209 ft ASP 153 ft
34 9580 ft 200 ft ASP 149 ft